Time;durP1;ratioP1;P1;durP2;ratioP2;P2;SDS_P1;SDS_P2;PMS_P1;PMS_P2;Temp;Humidity;BMP_temperature;BMP_pressure;BME280_temperature;BME280_humidity;BME280_pressure;Samples;Min_cycle;Max_cycle;Signal;HPM_P1;HPM_P2
2023/06/11 00:01:45;;;;;;;;;;;11.40;99.90;;;;;;5014311;28;20264;-63
2023/06/11 00:04:12;;;;;;;;;;;11.50;99.90;;;;;;5013795;28;19917;-63
2023/06/11 00:06:39;;;;;;;;;;;11.50;99.90;;;;;;5013434;28;19921;-64
2023/06/11 00:09:06;;;;;;;;;;;11.60;99.90;;;;;;5013896;28;19972;-64
2023/06/11 00:11:34;;;;;;;;;;;11.70;99.90;;;;;;5013556;28;19952;-63
2023/06/11 00:14:00;;;;;;;;;;;11.70;99.90;;;;;;5013583;28;19913;-64
2023/06/11 00:16:32;;;;;;;;;;;11.90;99.90;;;;;;5013422;28;19910;-65
2023/06/11 00:18:59;;;;;;;;;;;12.00;99.90;;;;;;5013343;28;19913;-64
2023/06/11 00:21:28;;;;;;;;;;;12.00;99.90;;;;;;5013248;28;19910;-65
2023/06/11 00:23:55;;;;;;;;;;;12.20;99.90;;;;;;5013392;28;19971;-66
2023/06/11 00:26:22;;;;;;;;;;;12.30;99.90;;;;;;5013264;28;19909;-64
2023/06/11 00:28:49;;;;;;;;;;;12.40;99.90;;;;;;5013096;28;19913;-66
2023/06/11 00:31:15;;;;;;;;;;;12.50;99.90;;;;;;5013533;28;19914;-64
2023/06/11 00:33:42;;;;;;;;;;;12.60;99.90;;;;;;5013082;28;20334;-65
2023/06/11 00:36:09;;;;;;;;;;;12.60;99.90;;;;;;5013082;28;20256;-64
2023/06/11 00:38:36;;;;;;;;;;;12.80;99.90;;;;;;5013054;28;19914;-64
2023/06/11 00:41:02;;;;;;;;;;;12.90;99.90;;;;;;5013181;28;19910;-64
2023/06/11 00:43:30;;;;;;;;;;;12.90;99.90;;;;;;5013059;28;19956;-64
2023/06/11 00:45:57;;;;;;;;;;;12.90;99.90;;;;;;5012914;28;19963;-63
2023/06/11 00:48:24;;;;;;;;;;;13.00;99.90;;;;;;5013075;28;19920;-64
2023/06/11 00:50:51;;;;;;;;;;;13.10;99.90;;;;;;5013114;28;19921;-65
2023/06/11 00:53:18;;;;;;;;;;;13.10;99.90;;;;;;5013118;28;19964;-64
2023/06/11 00:55:45;;;;;;;;;;;13.20;99.90;;;;;;5012598;28;19909;-64
2023/06/11 00:58:17;;;;;;;;;;;13.30;99.90;;;;;;5012887;28;19910;-65
2023/06/11 01:00:46;;;;;;;;;;;13.30;99.90;;;;;;5013189;28;19952;-64
2023/06/11 01:03:17;;;;;;;;;;;13.40;99.90;;;;;;5012675;28;19964;-64
2023/06/11 01:06:05;;;;;;;;;;;13.50;99.90;;;;;;5012739;28;20499;-64
2023/06/11 01:08:34;;;;;;;;;;;13.70;99.90;;;;;;5012902;28;19913;-64
2023/06/11 01:11:01;;;;;;;;;;;13.70;99.90;;;;;;5012973;28;19910;-64
2023/06/11 01:13:28;;;;;;;;;;;13.90;99.90;;;;;;5012589;28;20363;-65
2023/06/11 01:15:58;;;;;;;;;;;14.10;99.90;;;;;;5012710;28;20052;-64
2023/06/11 01:18:28;;;;;;;;;;;14.10;99.90;;;;;;5012695;28;19909;-66
2023/06/11 01:21:21;;;;;;;;;;;14.20;99.90;;;;;;5012845;28;19916;-65
2023/06/11 01:24:07;;;;;;;;;;;14.30;99.90;;;;;;5008095;28;19917;-65
2023/06/11 01:26:42;;;;;;;;;;;14.50;99.90;;;;;;5012636;28;19909;-63
2023/06/11 01:29:10;;;;;;;;;;;14.60;99.90;;;;;;5012859;28;19917;-65
2023/06/11 01:31:37;;;;;;;;;;;14.60;99.90;;;;;;5012774;28;19910;-65
2023/06/11 01:34:04;;;;;;;;;;;14.80;99.90;;;;;;5012660;28;19992;-64
2023/06/11 01:36:34;;;;;;;;;;;15.00;99.70;;;;;;5012482;28;19909;-64
2023/06/11 01:39:01;;;;;;;;;;;15.10;99.50;;;;;;5012410;28;19906;-64
2023/06/11 01:41:28;;;;;;;;;;;15.20;99.00;;;;;;5012704;28;19910;-66
2023/06/11 01:43:54;;;;;;;;;;;15.40;98.90;;;;;;5012399;28;19958;-64
2023/06/11 01:46:21;;;;;;;;;;;15.60;99.10;;;;;;5012582;28;20004;-64
2023/06/11 01:48:47;;;;;;;;;;;15.80;98.90;;;;;;5012522;28;19963;-65
2023/06/11 01:51:15;;;;;;;;;;;15.90;98.60;;;;;;5012532;28;19917;-66
2023/06/11 01:53:42;;;;;;;;;;;16.00;98.20;;;;;;5012775;28;20283;-64
2023/06/11 01:56:09;;;;;;;;;;;16.10;98.20;;;;;;5012260;28;19909;-62
2023/06/11 01:58:37;;;;;;;;;;;16.10;97.50;;;;;;5012619;28;19913;-65
2023/06/11 02:01:04;;;;;;;;;;;16.30;96.70;;;;;;5012271;28;19920;-64
2023/06/11 02:03:31;;;;;;;;;;;16.40;96.70;;;;;;5011989;28;19918;-64
2023/06/11 02:05:58;;;;;;;;;;;16.30;96.40;;;;;;4994817;28;19913;-65
2023/06/11 02:08:26;;;;;;;;;;;16.30;96.50;;;;;;5015301;28;19909;-64
2023/06/11 02:10:53;;;;;;;;;;;16.30;96.80;;;;;;5015986;28;19915;-64
2023/06/11 02:13:20;;;;;;;;;;;16.30;96.10;;;;;;5015939;28;20435;-66
2023/06/11 02:15:46;;;;;;;;;;;16.40;96.00;;;;;;5015612;28;20004;-64
2023/06/11 02:18:13;;;;;;;;;;;16.40;96.30;;;;;;4998367;28;20268;-65
2023/06/11 02:20:40;;;;;;;;;;;16.40;96.30;;;;;;5015709;28;19944;-65
2023/06/11 02:23:06;;;;;;;;;;;16.30;95.80;;;;;;5015594;28;20263;-65
2023/06/11 02:25:33;;;;;;;;;;;16.40;96.20;;;;;;5015738;28;19925;-65
2023/06/11 02:28:00;;;;;;;;;;;16.50;96.10;;;;;;5015524;28;20274;-67
2023/06/11 02:30:26;;;;;;;;;;;16.60;96.00;;;;;;5015644;28;20386;-64
2023/06/11 02:32:53;;;;;;;;;;;17.00;95.80;;;;;;5015455;28;19920;-66
2023/06/11 02:35:20;;;;;;;;;;;17.40;95.70;;;;;;5015453;28;20362;-64
2023/06/11 02:37:46;;;;;;;;;;;17.30;93.80;;;;;;5015434;28;20004;-65
2023/06/11 02:40:13;;;;;;;;;;;17.30;93.40;;;;;;5014100;28;19967;-65
2023/06/11 02:42:39;;;;;;;;;;;17.20;93.90;;;;;;5012794;28;20430;-65
2023/06/11 02:45:06;;;;;;;;;;;17.20;94.10;;;;;;5012202;28;19914;-62
2023/06/11 02:47:33;;;;;;;;;;;17.20;94.00;;;;;;5014739;28;19929;-63
2023/06/11 02:50:00;;;;;;;;;;;17.20;93.80;;;;;;5015814;28;19960;-65
2023/06/11 02:52:26;;;;;;;;;;;17.40;93.90;;;;;;5015282;28;19959;-66
2023/06/11 02:54:53;;;;;;;;;;;17.50;93.40;;;;;;5014697;28;19932;-65
2023/06/11 02:57:19;;;;;;;;;;;17.90;93.20;;;;;;5014492;28;19968;-65
2023/06/11 02:59:46;;;;;;;;;;;18.50;92.60;;;;;;5013260;28;19916;-65
2023/06/11 03:02:13;;;;;;;;;;;19.00;92.30;;;;;;5013870;28;19916;-65
2023/06/11 03:04:39;;;;;;;;;;;19.70;90.40;;;;;;5014699;28;20006;-68
2023/06/11 03:07:06;;;;;;;;;;;20.20;89.60;;;;;;5014602;28;20017;-68
2023/06/11 03:09:33;;;;;;;;;;;20.50;88.40;;;;;;5014147;28;19910;-67
2023/06/11 03:11:59;;;;;;;;;;;20.30;88.00;;;;;;5014885;28;19909;-68
2023/06/11 03:14:26;;;;;;;;;;;20.10;89.60;;;;;;5014673;28;20358;-67
2023/06/11 03:16:53;;;;;;;;;;;20.00;88.60;;;;;;5014696;28;19909;-67
2023/06/11 03:19:19;;;;;;;;;;;20.00;88.60;;;;;;5014315;28;19910;-67
2023/06/11 03:21:46;;;;;;;;;;;20.10;90.10;;;;;;5014592;28;19910;-68
2023/06/11 03:24:13;;;;;;;;;;;20.80;89.70;;;;;;5014234;28;19918;-64
2023/06/11 03:26:39;;;;;;;;;;;22.00;85.30;;;;;;5014382;28;20281;-67
2023/06/11 03:29:06;;;;;;;;;;;22.90;82.80;;;;;;5014505;28;19914;-65
2023/06/11 03:31:33;;;;;;;;;;;23.40;80.80;;;;;;5014444;28;20381;-65
2023/06/11 03:34:00;;;;;;;;;;;23.90;79.20;;;;;;5014616;28;19909;-67
2023/06/11 03:36:27;;;;;;;;;;;24.80;78.50;;;;;;5014278;28;20392;-67
2023/06/11 03:38:54;;;;;;;;;;;26.70;74.20;;;;;;5014264;28;19917;-65
2023/06/11 03:41:21;;;;;;;;;;;28.00;70.30;;;;;;4996359;28;19947;-68
2023/06/11 03:43:47;;;;;;;;;;;28.50;67.50;;;;;;5014204;28;19918;-67
2023/06/11 03:46:14;;;;;;;;;;;29.10;65.90;;;;;;5014203;28;19909;-66
2023/06/11 03:48:40;;;;;;;;;;;30.00;64.70;;;;;;5014124;28;19925;-67
2023/06/11 03:51:07;;;;;;;;;;;30.60;62.50;;;;;;5013929;28;19917;-67
2023/06/11 03:53:34;;;;;;;;;;;30.70;61.40;;;;;;5013748;28;19952;-67
2023/06/11 03:56:01;;;;;;;;;;;31.00;60.70;;;;;;5013782;28;19909;-67
2023/06/11 03:58:27;;;;;;;;;;;31.40;59.90;;;;;;5014273;28;19913;-67
2023/06/11 04:00:54;;;;;;;;;;;31.70;59.00;;;;;;5013910;28;19936;-66
2023/06/11 04:03:20;;;;;;;;;;;31.60;57.80;;;;;;5013727;28;19917;-68
2023/06/11 04:05:47;;;;;;;;;;;30.50;59.70;;;;;;5013868;28;19910;-67
2023/06/11 04:08:14;;;;;;;;;;;29.60;59.80;;;;;;5013804;28;19909;-67
2023/06/11 04:10:40;;;;;;;;;;;28.60;60.70;;;;;;5013726;28;19910;-64
2023/06/11 04:13:07;;;;;;;;;;;27.50;62.30;;;;;;5013703;28;20378;-69
2023/06/11 04:15:34;;;;;;;;;;;26.20;64.60;;;;;;5013580;28;19909;-66
2023/06/11 04:18:00;;;;;;;;;;;25.10;66.10;;;;;;5013764;28;19909;-67
2023/06/11 04:20:27;;;;;;;;;;;23.90;67.50;;;;;;5013588;28;20397;-68
2023/06/11 04:22:54;;;;;;;;;;;22.90;70.50;;;;;;5013330;28;19921;-65
2023/06/11 04:25:21;;;;;;;;;;;22.10;71.80;;;;;;5013311;28;19913;-68
2023/06/11 04:27:47;;;;;;;;;;;21.50;73.80;;;;;;5013474;28;20350;-68
2023/06/11 04:30:14;;;;;;;;;;;21.00;75.10;;;;;;5012867;28;19925;-64
2023/06/11 04:32:41;;;;;;;;;;;20.60;77.20;;;;;;5013476;28;19956;-64
2023/06/11 04:35:08;;;;;;;;;;;20.20;77.10;;;;;;5013251;28;19964;-66
2023/06/11 04:37:40;;;;;;;;;;;20.00;78.10;;;;;;5013334;28;19910;-66
2023/06/11 04:40:10;;;;;;;;;;;19.80;78.50;;;;;;5013264;28;19945;-63
2023/06/11 04:42:41;;;;;;;;;;;19.60;79.60;;;;;;5013376;28;19922;-63
2023/06/11 04:45:10;;;;;;;;;;;19.40;79.50;;;;;;5013323;28;19914;-62
2023/06/11 04:47:37;;;;;;;;;;;19.50;80.70;;;;;;5012974;28;20010;-63
2023/06/11 04:50:05;;;;;;;;;;;19.50;80.90;;;;;;5013261;28;20016;-62
2023/06/11 04:52:42;;;;;;;;;;;19.40;81.30;;;;;;5012897;28;20091;-62
2023/06/11 04:55:13;;;;;;;;;;;19.40;81.80;;;;;;5012974;28;19909;-65
2023/06/11 04:57:39;;;;;;;;;;;19.50;80.40;;;;;;5012989;28;20000;-64
2023/06/11 05:00:13;;;;;;;;;;;19.50;80.30;;;;;;5013166;28;19910;-66
2023/06/11 05:02:43;;;;;;;;;;;19.50;80.20;;;;;;5012610;28;19914;-66
2023/06/11 05:05:10;;;;;;;;;;;19.50;81.30;;;;;;5012843;28;20437;-66
2023/06/11 05:07:37;;;;;;;;;;;19.50;80.40;;;;;;5013134;28;19909;-66
2023/06/11 05:10:03;;;;;;;;;;;19.40;82.70;;;;;;5012844;28;20428;-63
2023/06/11 05:12:30;;;;;;;;;;;19.50;82.80;;;;;;5012842;28;19917;-65
2023/06/11 05:14:57;;;;;;;;;;;19.50;82.10;;;;;;5013027;28;19917;-65
2023/06/11 05:17:24;;;;;;;;;;;19.70;82.20;;;;;;5012655;28;19925;-67
2023/06/11 05:19:51;;;;;;;;;;;19.70;81.70;;;;;;5013054;28;19916;-62
2023/06/11 05:22:18;;;;;;;;;;;19.60;81.10;;;;;;5012865;28;19979;-62
2023/06/11 05:24:47;;;;;;;;;;;19.60;82.60;;;;;;5012810;28;19914;-61
2023/06/11 05:27:14;;;;;;;;;;;19.60;83.40;;;;;;5012688;28;20394;-64
2023/06/11 05:29:40;;;;;;;;;;;19.60;83.00;;;;;;5012772;28;20379;-63
2023/06/11 05:32:08;;;;;;;;;;;19.50;82.30;;;;;;5013006;28;19956;-63
2023/06/11 05:34:37;;;;;;;;;;;19.70;82.60;;;;;;5012734;28;19909;-63
2023/06/11 05:37:03;;;;;;;;;;;19.80;83.90;;;;;;5012409;28;19916;-62
2023/06/11 05:39:31;;;;;;;;;;;20.10;85.00;;;;;;5012862;28;19920;-65
2023/06/11 05:41:58;;;;;;;;;;;20.30;83.20;;;;;;5015109;28;19909;-64
2023/06/11 05:44:25;;;;;;;;;;;20.50;81.70;;;;;;5016179;28;20374;-64
2023/06/11 05:46:51;;;;;;;;;;;20.70;81.90;;;;;;5016022;28;19909;-64
2023/06/11 05:49:18;;;;;;;;;;;20.70;82.90;;;;;;5016096;28;19921;-66
2023/06/11 05:51:45;;;;;;;;;;;20.80;83.00;;;;;;5016371;28;19909;-63
2023/06/11 05:54:15;;;;;;;;;;;20.60;83.20;;;;;;5015354;28;20269;-66
2023/06/11 05:56:41;;;;;;;;;;;20.70;82.30;;;;;;5015972;28;19909;-64
2023/06/11 05:59:08;;;;;;;;;;;20.70;81.90;;;;;;5016260;28;20298;-63
2023/06/11 06:01:35;;;;;;;;;;;20.90;81.50;;;;;;5016156;28;19952;-64
2023/06/11 06:04:01;;;;;;;;;;;21.10;81.80;;;;;;5015948;28;20467;-64
2023/06/11 06:06:29;;;;;;;;;;;21.50;80.50;;;;;;5015899;28;19920;-63
2023/06/11 06:08:56;;;;;;;;;;;21.80;79.90;;;;;;5016171;28;19910;-63
2023/06/11 06:11:23;;;;;;;;;;;21.80;79.00;;;;;;5015846;28;19909;-64
2023/06/11 06:13:49;;;;;;;;;;;21.60;79.80;;;;;;5015808;28;19936;-63
2023/06/11 06:16:16;;;;;;;;;;;21.10;81.10;;;;;;5015921;28;19917;-62
2023/06/11 06:18:44;;;;;;;;;;;20.70;81.60;;;;;;5015472;28;20358;-64
2023/06/11 06:21:10;;;;;;;;;;;20.30;82.30;;;;;;5015763;28;19909;-63
2023/06/11 06:23:37;;;;;;;;;;;19.80;83.50;;;;;;5015439;28;20488;-67
2023/06/11 06:26:04;;;;;;;;;;;19.30;84.60;;;;;;5015490;28;19995;-62
2023/06/11 06:28:32;;;;;;;;;;;18.90;85.90;;;;;;5015605;28;19935;-63
2023/06/11 06:30:59;;;;;;;;;;;18.50;87.90;;;;;;5015657;28;19917;-63
2023/06/11 06:33:25;;;;;;;;;;;18.10;89.10;;;;;;5015401;28;19910;-66
2023/06/11 06:35:52;;;;;;;;;;;17.90;90.10;;;;;;5015460;28;19909;-67
2023/06/11 06:38:18;;;;;;;;;;;17.50;90.40;;;;;;5015448;28;19910;-66
2023/06/11 06:40:45;;;;;;;;;;;17.30;91.00;;;;;;5015104;28;19920;-63
2023/06/11 06:43:12;;;;;;;;;;;17.10;91.40;;;;;;5015054;28;19959;-66
2023/06/11 06:45:39;;;;;;;;;;;16.90;92.10;;;;;;5015281;28;19963;-65
2023/06/11 06:48:06;;;;;;;;;;;16.70;92.60;;;;;;5015080;28;19953;-64
2023/06/11 06:50:32;;;;;;;;;;;16.50;93.10;;;;;;5015015;28;20282;-65
2023/06/11 06:52:59;;;;;;;;;;;16.30;93.60;;;;;;5014368;28;19914;-63
2023/06/11 06:55:26;;;;;;;;;;;16.10;94.10;;;;;;5015280;28;19913;-66
2023/06/11 06:57:52;;;;;;;;;;;16.00;94.70;;;;;;5015112;28;19914;-67
2023/06/11 07:00:19;;;;;;;;;;;15.80;95.40;;;;;;5015159;28;19973;-63
2023/06/11 07:02:46;;;;;;;;;;;15.70;96.10;;;;;;5014639;28;19914;-66
2023/06/11 07:05:12;;;;;;;;;;;15.50;96.60;;;;;;5015217;28;19913;-66
2023/06/11 07:07:40;;;;;;;;;;;15.40;97.20;;;;;;5014591;28;19933;-66
2023/06/11 07:10:08;;;;;;;;;;;15.20;97.60;;;;;;5014759;28;19920;-63
2023/06/11 07:12:34;;;;;;;;;;;15.10;98.40;;;;;;5014489;28;19960;-63
2023/06/11 07:15:01;;;;;;;;;;;14.90;99.00;;;;;;5014882;28;19939;-66
2023/06/11 07:17:28;;;;;;;;;;;14.80;99.40;;;;;;5014598;28;19913;-66
2023/06/11 07:19:54;;;;;;;;;;;14.70;99.90;;;;;;5014640;28;19964;-64
2023/06/11 07:22:21;;;;;;;;;;;14.60;99.90;;;;;;5014521;28;19909;-67
2023/06/11 07:24:48;;;;;;;;;;;14.50;99.90;;;;;;5014705;28;19918;-66
2023/06/11 07:27:14;;;;;;;;;;;14.30;99.90;;;;;;5014345;28;19910;-67
2023/06/11 07:29:41;;;;;;;;;;;14.20;99.90;;;;;;5014438;28;19963;-65
2023/06/11 07:32:08;;;;;;;;;;;14.10;99.90;;;;;;5014391;28;19945;-65
2023/06/11 07:34:34;;;;;;;;;;;14.00;99.90;;;;;;5014495;28;19964;-64
2023/06/11 07:37:01;;;;;;;;;;;14.00;99.90;;;;;;5014144;28;19910;-66
2023/06/11 07:39:28;;;;;;;;;;;13.90;99.90;;;;;;5014029;28;19916;-65
2023/06/11 07:41:54;;;;;;;;;;;13.80;99.90;;;;;;5014454;28;19909;-62
2023/06/11 07:44:21;;;;;;;;;;;13.70;99.90;;;;;;5014100;28;20023;-64
2023/06/11 07:46:48;;;;;;;;;;;13.60;99.90;;;;;;4996564;28;19996;-64
2023/06/11 07:49:14;;;;;;;;;;;13.50;99.90;;;;;;5014119;28;19922;-63
2023/06/11 07:51:42;;;;;;;;;;;13.50;99.90;;;;;;5014046;28;20032;-63
2023/06/11 07:54:09;;;;;;;;;;;13.50;99.90;;;;;;5013944;28;19916;-67
2023/06/11 07:56:36;;;;;;;;;;;13.40;99.90;;;;;;5013792;28;19910;-65
2023/06/11 07:59:03;;;;;;;;;;;13.40;99.90;;;;;;5013846;28;19909;-64
2023/06/11 08:01:29;;;;;;;;;;;13.30;99.90;;;;;;5014029;28;19940;-66
2023/06/11 08:03:57;;;;;;;;;;;13.20;99.90;;;;;;5013510;28;20345;-65
2023/06/11 08:06:23;;;;;;;;;;;13.30;99.90;;;;;;5013576;28;19910;-65
2023/06/11 08:08:50;;;;;;;;;;;13.10;99.90;;;;;;5014031;28;20382;-64
2023/06/11 08:11:17;;;;;;;;;;;13.20;99.90;;;;;;5013955;28;19921;-64
2023/06/11 08:13:44;;;;;;;;;;;13.10;99.90;;;;;;4996110;28;19909;-65
2023/06/11 08:16:10;;;;;;;;;;;13.10;99.90;;;;;;5013286;28;19953;-64
2023/06/11 08:18:37;;;;;;;;;;;13.10;99.90;;;;;;5013597;28;19909;-66
2023/06/11 08:21:05;;;;;;;;;;;13.00;99.90;;;;;;5013783;28;19909;-65
2023/06/11 08:23:34;;;;;;;;;;;13.00;99.90;;;;;;5015063;28;20282;-65
2023/06/11 08:26:01;;;;;;;;;;;13.00;99.90;;;;;;5014063;28;19956;-64
2023/06/11 08:28:28;;;;;;;;;;;12.90;99.90;;;;;;4995837;28;20359;-66
2023/06/11 08:30:55;;;;;;;;;;;12.80;99.90;;;;;;5013506;28;19910;-62
2023/06/11 08:33:22;;;;;;;;;;;12.80;99.90;;;;;;5013867;28;19917;-65
2023/06/11 08:35:48;;;;;;;;;;;12.80;99.90;;;;;;5012103;28;20381;-64
2023/06/11 08:38:15;;;;;;;;;;;12.70;99.90;;;;;;5013378;28;20055;-64
2023/06/11 08:40:42;;;;;;;;;;;12.70;99.90;;;;;;5013204;28;20440;-64
2023/06/11 08:43:09;;;;;;;;;;;12.70;99.90;;;;;;5013188;28;19914;-64
2023/06/11 08:45:35;;;;;;;;;;;12.60;99.90;;;;;;5013240;28;19914;-66
2023/06/11 08:48:03;;;;;;;;;;;12.60;99.90;;;;;;5013064;28;19909;-65
2023/06/11 08:50:33;;;;;;;;;;;12.60;99.90;;;;;;5013155;28;19922;-65
2023/06/11 08:53:02;;;;;;;;;;;12.50;99.90;;;;;;5012888;28;20333;-66
2023/06/11 08:55:29;;;;;;;;;;;12.50;99.90;;;;;;5012892;28;19992;-66
2023/06/11 08:57:56;;;;;;;;;;;12.50;99.90;;;;;;5011645;28;19956;-64
2023/06/11 09:00:23;;;;;;;;;;;12.40;99.90;;;;;;5013244;28;19910;-63
2023/06/11 09:02:51;;;;;;;;;;;12.40;99.90;;;;;;5013030;28;20028;-64
2023/06/11 09:05:17;;;;;;;;;;;12.30;99.90;;;;;;5012814;28;19932;-63
2023/06/11 09:07:51;;;;;;;;;;;12.30;99.90;;;;;;5012941;28;19917;-64
2023/06/11 09:10:19;;;;;;;;;;;12.20;99.90;;;;;;5013117;28;20367;-63
2023/06/11 09:12:46;;;;;;;;;;;12.20;99.90;;;;;;4995282;28;20051;-63
2023/06/11 09:15:13;;;;;;;;;;;12.20;99.90;;;;;;5012604;28;19916;-65
2023/06/11 09:17:41;;;;;;;;;;;12.20;99.90;;;;;;5016597;28;20354;-66
2023/06/11 09:20:09;;;;;;;;;;;12.20;99.90;;;;;;5016733;28;19952;-64
2023/06/11 09:22:37;;;;;;;;;;;12.00;99.90;;;;;;5016996;28;20008;-64
2023/06/11 09:25:04;;;;;;;;;;;12.10;99.90;;;;;;5016840;28;19924;-64
2023/06/11 09:27:32;;;;;;;;;;;12.10;99.90;;;;;;4999419;28;19952;-64
2023/06/11 09:30:08;;;;;;;;;;;12.00;99.90;;;;;;4999301;28;19909;-64
2023/06/11 09:32:41;;;;;;;;;;;12.00;99.90;;;;;;5016642;28;19910;-66
2023/06/11 09:35:08;;;;;;;;;;;12.00;99.90;;;;;;5016360;28;20286;-66
2023/06/11 09:37:43;;;;;;;;;;;11.90;99.90;;;;;;5016462;28;19960;-67
2023/06/11 09:40:11;;;;;;;;;;;12.00;99.90;;;;;;5016687;28;19909;-64
2023/06/11 09:42:38;;;;;;;;;;;11.90;99.90;;;;;;5016476;28;19909;-66
2023/06/11 09:45:05;;;;;;;;;;;11.80;99.90;;;;;;5016508;28;19917;-66
2023/06/11 09:47:32;;;;;;;;;;;11.90;99.90;;;;;;5016443;28;19910;-66
2023/06/11 09:49:59;;;;;;;;;;;11.90;99.90;;;;;;5016389;28;19921;-65
2023/06/11 09:52:28;;;;;;;;;;;11.80;99.90;;;;;;5016400;28;20358;-64
2023/06/11 09:54:55;;;;;;;;;;;11.80;99.90;;;;;;5017063;28;20008;-64
2023/06/11 09:57:22;;;;;;;;;;;11.80;99.90;;;;;;5016083;28;20274;-65
2023/06/11 09:59:49;;;;;;;;;;;11.70;99.90;;;;;;5016455;28;19909;-67
2023/06/11 10:02:15;;;;;;;;;;;11.70;99.90;;;;;;5016288;28;19909;-65
2023/06/11 10:04:42;;;;;;;;;;;11.70;99.90;;;;;;5016027;28;19924;-64
2023/06/11 10:07:10;;;;;;;;;;;11.70;99.90;;;;;;5016135;28;19956;-63
2023/06/11 10:09:38;;;;;;;;;;;11.70;99.90;;;;;;5016171;28;19909;-64
2023/06/11 10:12:06;;;;;;;;;;;11.60;99.90;;;;;;5015902;28;19917;-65
2023/06/11 10:14:33;;;;;;;;;;;11.60;99.90;;;;;;5015741;28;19953;-67
2023/06/11 10:17:02;;;;;;;;;;;11.50;99.90;;;;;;5015895;28;19913;-65
2023/06/11 10:19:38;;;;;;;;;;;11.50;99.90;;;;;;5015912;28;20351;-65
2023/06/11 10:22:04;;;;;;;;;;;11.50;99.90;;;;;;5015945;28;19909;-63
2023/06/11 10:24:31;;;;;;;;;;;11.40;99.90;;;;;;5015640;28;19917;-64
2023/06/11 10:27:14;;;;;;;;;;;11.40;99.90;;;;;;5015194;28;19917;-63
2023/06/11 10:29:47;;;;;;;;;;;11.40;99.90;;;;;;5015309;28;19910;-63
2023/06/11 10:32:23;;;;;;;;;;;11.40;99.90;;;;;;5015784;28;19976;-62
2023/06/11 10:34:57;;;;;;;;;;;11.30;99.90;;;;;;5015577;28;19913;-64
2023/06/11 10:37:42;;;;;;;;;;;11.30;99.90;;;;;;5015377;28;19914;-65
2023/06/11 10:40:09;;;;;;;;;;;11.30;99.90;;;;;;5015522;28;20335;-62
2023/06/11 10:42:36;;;;;;;;;;;11.30;99.90;;;;;;5015771;28;19916;-63
2023/06/11 10:45:10;;;;;;;;;;;11.30;99.90;;;;;;5015508;28;19914;-63
2023/06/11 10:47:43;;;;;;;;;;;11.20;99.90;;;;;;5014994;28;19909;-63
2023/06/11 10:50:11;;;;;;;;;;;11.20;99.90;;;;;;5015299;28;20492;-62
2023/06/11 10:52:57;;;;;;;;;;;11.20;99.90;;;;;;5015325;28;20283;-64
2023/06/11 10:55:26;;;;;;;;;;;11.20;99.90;;;;;;5015290;28;19972;-64
2023/06/11 10:57:53;;;;;;;;;;;11.10;99.90;;;;;;5015067;28;19917;-63
2023/06/11 11:00:20;;;;;;;;;;;11.20;99.90;;;;;;5015199;28;19914;-64
2023/06/11 11:02:47;;;;;;;;;;;11.10;99.90;;;;;;5015127;28;19909;-64
2023/06/11 11:05:13;;;;;;;;;;;11.10;99.90;;;;;;5015023;28;19913;-63
2023/06/11 11:07:44;;;;;;;;;;;11.10;99.90;;;;;;4997291;28;19909;-64
2023/06/11 11:10:11;;;;;;;;;;;11.10;99.90;;;;;;5014631;28;19916;-63
2023/06/11 11:12:39;;;;;;;;;;;11.10;99.90;;;;;;5014782;28;19945;-65
2023/06/11 11:15:06;;;;;;;;;;;11.10;99.90;;;;;;5014938;28;20000;-63
2023/06/11 11:17:33;;;;;;;;;;;11.10;99.90;;;;;;5014780;28;20282;-63
2023/06/11 11:20:00;;;;;;;;;;;11.00;99.90;;;;;;5014776;28;19909;-63
2023/06/11 11:22:29;;;;;;;;;;;11.00;99.90;;;;;;5014572;28;19915;-64
2023/06/11 11:25:02;;;;;;;;;;;11.00;99.90;;;;;;5014461;28;20437;-63
2023/06/11 11:27:29;;;;;;;;;;;11.00;99.90;;;;;;5014445;28;20008;-62
2023/06/11 11:29:58;;;;;;;;;;;11.00;99.90;;;;;;5014590;28;19940;-64
2023/06/11 11:32:27;;;;;;;;;;;11.00;99.90;;;;;;5014533;28;19909;-64
2023/06/11 11:34:57;;;;;;;;;;;10.90;99.90;;;;;;5014272;28;20355;-66
2023/06/11 11:37:24;;;;;;;;;;;10.90;99.90;;;;;;5014250;28;19914;-62
2023/06/11 11:39:52;;;;;;;;;;;10.90;99.90;;;;;;5014092;28;19910;-64
2023/06/11 11:42:19;;;;;;;;;;;10.90;99.90;;;;;;5014443;28;19956;-63
2023/06/11 11:44:45;;;;;;;;;;;10.80;99.90;;;;;;5014106;28;19940;-63
2023/06/11 11:47:12;;;;;;;;;;;10.90;99.90;;;;;;5014129;28;19913;-63
2023/06/11 11:49:39;;;;;;;;;;;10.90;99.90;;;;;;5013847;28;20448;-63
2023/06/11 11:52:06;;;;;;;;;;;10.80;99.90;;;;;;5014196;28;20289;-63
2023/06/11 11:54:33;;;;;;;;;;;10.80;99.90;;;;;;5014086;28;19910;-64
2023/06/11 11:57:06;;;;;;;;;;;10.80;99.90;;;;;;5013966;28;19945;-66
2023/06/11 11:59:42;;;;;;;;;;;10.80;99.90;;;;;;4996574;28;19910;-67
2023/06/11 12:02:09;;;;;;;;;;;10.80;99.90;;;;;;5013981;28;19948;-67
2023/06/11 12:04:40;;;;;;;;;;;10.80;99.90;;;;;;5013878;28;19924;-64
2023/06/11 12:07:07;;;;;;;;;;;10.70;99.90;;;;;;5014042;28;19956;-64
2023/06/11 12:09:35;;;;;;;;;;;10.70;99.90;;;;;;5013830;28;20354;-64
2023/06/11 12:12:01;;;;;;;;;;;10.70;99.90;;;;;;5013763;28;19913;-63
2023/06/11 12:14:28;;;;;;;;;;;10.60;99.90;;;;;;5013737;28;19910;-63
2023/06/11 12:16:55;;;;;;;;;;;10.70;99.90;;;;;;5013618;28;19992;-63
2023/06/11 12:19:21;;;;;;;;;;;10.60;99.90;;;;;;5013875;28;19910;-63
2023/06/11 12:21:48;;;;;;;;;;;10.60;99.90;;;;;;5013803;28;19909;-63
2023/06/11 12:24:15;;;;;;;;;;;10.60;99.90;;;;;;5013382;28;19918;-63
2023/06/11 12:26:45;;;;;;;;;;;10.60;99.90;;;;;;5013503;28;20310;-63
2023/06/11 12:29:12;;;;;;;;;;;10.60;99.90;;;;;;5013623;28;19960;-62
2023/06/11 12:31:39;;;;;;;;;;;10.60;99.90;;;;;;5013633;28;20288;-63
2023/06/11 12:34:06;;;;;;;;;;;10.50;99.90;;;;;;5013522;28;19913;-63
2023/06/11 12:36:33;;;;;;;;;;;10.50;99.90;;;;;;5013156;28;20012;-63
2023/06/11 12:39:01;;;;;;;;;;;10.50;99.90;;;;;;5013410;28;19913;-63
2023/06/11 12:41:27;;;;;;;;;;;10.50;99.90;;;;;;5014412;28;19964;-64
2023/06/11 12:43:54;;;;;;;;;;;10.50;99.90;;;;;;5015323;28;19917;-65
2023/06/11 12:46:21;;;;;;;;;;;10.40;99.90;;;;;;5013536;28;19909;-63
2023/06/11 12:48:47;;;;;;;;;;;10.50;99.90;;;;;;5013475;28;19921;-64
2023/06/11 12:51:14;;;;;;;;;;;10.40;99.90;;;;;;5012445;28;19921;-63
2023/06/11 12:53:40;;;;;;;;;;;10.40;99.90;;;;;;5013380;28;19917;-63
2023/06/11 12:56:07;;;;;;;;;;;10.40;99.90;;;;;;5013286;28;19910;-63
2023/06/11 12:58:34;;;;;;;;;;;10.40;99.90;;;;;;5013218;28;19917;-63
2023/06/11 13:01:00;;;;;;;;;;;10.40;99.90;;;;;;5013052;28;20255;-64
2023/06/11 13:03:27;;;;;;;;;;;10.40;99.90;;;;;;5013143;28;19918;-63
2023/06/11 13:05:54;;;;;;;;;;;10.30;99.90;;;;;;5013072;28;19910;-63
2023/06/11 13:08:20;;;;;;;;;;;10.30;99.90;;;;;;5012929;28;20278;-63
2023/06/11 13:10:47;;;;;;;;;;;10.30;99.90;;;;;;5013032;28;20000;-64
2023/06/11 13:13:14;;;;;;;;;;;10.30;99.90;;;;;;5013006;28;20004;-65
2023/06/11 13:15:43;;;;;;;;;;;10.30;99.90;;;;;;5013072;28;20417;-63
2023/06/11 13:18:12;;;;;;;;;;;10.20;99.90;;;;;;5012967;28;20334;-64
2023/06/11 13:20:39;;;;;;;;;;;10.20;99.90;;;;;;5012767;28;20000;-63
2023/06/11 13:23:05;;;;;;;;;;;10.20;99.90;;;;;;5012566;28;19988;-64
2023/06/11 13:25:32;;;;;;;;;;;10.20;99.90;;;;;;5013068;28;19941;-62
2023/06/11 13:27:59;;;;;;;;;;;10.10;99.90;;;;;;5012930;28;19910;-62
2023/06/11 13:30:25;;;;;;;;;;;10.10;99.90;;;;;;5012861;28;19955;-64
2023/06/11 13:32:52;;;;;;;;;;;10.00;99.90;;;;;;5012833;28;19916;-64
2023/06/11 13:35:18;;;;;;;;;;;10.00;99.90;;;;;;5012702;28;20418;-64
2023/06/11 13:37:45;;;;;;;;;;;10.00;99.90;;;;;;5012760;28;19910;-63
2023/06/11 13:40:12;;;;;;;;;;;10.00;99.90;;;;;;5012825;28;19917;-63
2023/06/11 13:42:38;;;;;;;;;;;10.00;99.90;;;;;;5012681;28;19909;-62
2023/06/11 13:45:05;;;;;;;;;;;10.00;99.90;;;;;;5012742;28;19914;-63
2023/06/11 13:47:32;;;;;;;;;;;10.00;99.90;;;;;;5012513;28;19996;-63
2023/06/11 13:49:59;;;;;;;;;;;9.90;99.90;;;;;;5012416;28;19943;-64
2023/06/11 13:52:26;;;;;;;;;;;9.90;99.90;;;;;;5012550;28;19916;-63
2023/06/11 13:54:53;;;;;;;;;;;9.90;99.90;;;;;;5012563;28;20397;-63
2023/06/11 13:57:20;;;;;;;;;;;9.90;99.90;;;;;;4994956;28;20333;-62
2023/06/11 13:59:46;;;;;;;;;;;9.90;99.90;;;;;;5012804;28;19996;-63
2023/06/11 14:02:13;;;;;;;;;;;9.90;99.90;;;;;;5013740;28;20366;-63
2023/06/11 14:04:40;;;;;;;;;;;9.80;99.90;;;;;;5016111;28;19917;-63
2023/06/11 14:07:06;;;;;;;;;;;9.90;99.90;;;;;;5016216;28;19910;-63
2023/06/11 14:09:33;;;;;;;;;;;9.90;99.90;;;;;;5016210;28;19910;-63
2023/06/11 14:12:00;;;;;;;;;;;9.80;99.90;;;;;;5016081;28;19937;-62
2023/06/11 14:14:31;;;;;;;;;;;9.80;99.90;;;;;;5016079;28;19909;-62
2023/06/11 14:17:01;;;;;;;;;;;9.80;99.90;;;;;;5015901;28;20412;-64
2023/06/11 14:19:28;;;;;;;;;;;9.80;99.90;;;;;;5015889;28;19909;-63
2023/06/11 14:21:55;;;;;;;;;;;9.80;99.90;;;;;;5015792;28;19917;-63